• Join FlightAware (Why Join?)
  • Login
  • US Flag 
02:03PM EDT


 

Airport Tracker/Info


-or-


 

Live Flight TrackerFlight Track Log ✈ ASQ5874 ✈ 18-Sep-2013 ✈ KICT - KORD

Flight Track Log - Related Links

Times and Time Zones

All times are in EDT time to prevent confusion due to time zone crossing. See the ASQ5874 flight status page for this flight to view local times or setup timezone preferences in your user account.

Time Position Orientation Groundspeed Altitude Reporting Facility
EDT Latitude Longitude Course Direction KTS MPH feet Rate Location/Type
06:47AM 37.6361 -97.4469 58° Northeast 148 170 2,000  Level Kansas City Center
06:47AM 37.6319 -97.4475 186° South 148 170 2,300 2,220 Climbing Kansas City Center
06:48AM 37.5942 -97.4269 157° South 218 251 4,500 2,100 Climbing Kansas City Center
06:48AM 37.6006 -97.3783 81° East 247 284 5,600 1,800 Climbing Kansas City Center
06:49AM 37.6233 -97.2883 72° East 267 307 7,400 1,860 Climbing Kansas City Center
06:50AM 37.8014 -97.1440 79° East  Level Estimated
06:50AM 37.6475 -97.1872 73° East 295 339 9,500  Level Kansas City Center
06:51AM 37.7963 -97.0285 93° East  Level FlightAware Approximate
06:51AM 37.6736 -97.0839 72° East 308 354 11,200  Level Kansas City Center
06:52AM 37.8470 -96.9322 58° Northeast  Level Estimated
06:52AM 37.7019 -96.9658 73° East 344 396 12,200  Level Kansas City Center
06:53AM 37.7322 -96.8406 73° East 370 426 13,300 1,320 Climbing Kansas City Center
06:54AM 37.7633 -96.7125 73° East 379 436 14,900 1,500 Climbing Kansas City Center
06:55AM 37.7933 -96.5883 73° East 373 429 16,400 1,740 Climbing Kansas City Center
06:57AM 37.8225 -96.4661 73° East 367 422 18,500 1,740 Climbing Kansas City Center
06:57AM 37.8503 -96.3453 74° East 360 414 19,900 1,200 Climbing Kansas City Center
06:59AM 37.8811 -96.2172 73° East 369 425 21,000 1,080 Climbing Kansas City Center
06:59AM 37.9125 -96.0858 73° East 382 440 22,100 960 Climbing Kansas City Center
07:00AM 37.9419 -95.9578 74° East 389 448 23,000 900 Climbing Kansas City Center
07:02AM 37.9714 -95.8269 74° East 400 460 24,000 1,020 Climbing Kansas City Center
07:03AM 38.0078 -95.6725 73° East 409 471 25,100 960 Climbing Kansas City Center
07:04AM 38.0381 -95.5378 74° East 414 476 26,000 900 Climbing Kansas City Center
07:05AM 38.0689 -95.4044 74° East 413 475 26,900 960 Climbing Kansas City Center
07:06AM 38.1044 -95.2472 74° East 417 480 28,000 960 Climbing Kansas City Center
07:07AM 38.1344 -95.1128 74° East 416 479 29,000 900 Climbing Kansas City Center
07:08AM 38.1733 -94.9819 69° East 422 486 29,900 960 Climbing Kansas City Center
07:09AM 38.2319 -94.8389 62° Northeast 415 478 31,000 960 Climbing Kansas City Center
07:10AM 38.2831 -94.7144 62° Northeast 414 476 31,900 840 Climbing Kansas City Center
07:11AM 38.3369 -94.5869 62° Northeast 420 483 32,800 900 Climbing Kansas City Center
07:12AM 38.3906 -94.4614 61° Northeast 423 487 33,800 960 Climbing Kansas City Center
07:13AM 38.4714 -94.3294 52° Northeast 423 487 34,800 540 Climbing Kansas City Center
07:14AM 38.5403 -94.2164 52° Northeast 422 486 35,000 60 Climbing Kansas City Center
07:15AM 38.6142 -94.0944 52° Northeast 441 507 35,000  Level Kansas City Center
07:16AM 38.7033 -93.9472 52° Northeast 463 533 35,000  Level Kansas City Center
07:17AM 38.7789 -93.8214 52° Northeast 466 536 35,000  Level Kansas City Center
07:18AM 38.8597 -93.6853 53° Northeast 465 535 35,000  Level Kansas City Center
07:19AM 38.9381 -93.5528 53° Northeast 465 535 35,000  Level Kansas City Center
07:20AM 39.0156 -93.4231 52° Northeast 461 531 35,000  Level Kansas City Center
07:21AM 39.0931 -93.2908 53° Northeast 473 544 35,000  Level Kansas City Center
07:22AM 39.1681 -93.1631 53° Northeast 460 529 35,000  Level Kansas City Center
07:23AM 39.2428 -93.0372 52° Northeast 450 518 35,000  Level Kansas City Center
07:24AM 39.3189 -92.9067 53° Northeast 455 524 35,000  Level Kansas City Center
07:25AM 39.4103 -92.7489 53° Northeast 460 529 35,000  Level Kansas City Center
07:26AM 39.4856 -92.6200 53° Northeast 457 526 35,000  Level Kansas City Center
07:27AM 39.5606 -92.4939 52° Northeast 451 519 35,000  Level Kansas City Center
07:28AM 39.6361 -92.3611 54° Northeast 458 527 35,000  Level Kansas City Center
07:29AM 39.7119 -92.2286 53° Northeast 461 531 35,000  Level Kansas City Center
07:30AM 39.7892 -92.0936 53° Northeast 466 536 35,000  Level Kansas City Center
07:31AM 39.8636 -91.9625 53° Northeast 463 533 35,000  Level Kansas City Center
07:32AM 39.9358 -91.8344 54° Northeast 454 522 35,000  Level Kansas City Center
07:33AM 40.0103 -91.7033 53° Northeast 453 521 35,000  Level Kansas City Center
07:34AM 40.0953 -91.5514 54° Northeast 444 511 35,000  Level Kansas City Center
07:35AM 40.1664 -91.4225 54° Northeast 442 509 35,000 -300 Level Kansas City Center
07:36AM 40.2381 -91.2925 54° Northeast 444 511 34,400 -840 Descending Kansas City Center
07:37AM 40.3161 -91.1525 54° Northeast 448 516 33,400 -720 Descending Kansas City Center
07:38AM 40.3906 -91.0169 54° Northeast 455 524 33,000 -300 Descending Kansas City Center
07:38AM 40.4358 -90.9361 54° Northeast 454 522 33,000  Level Chicago Center
07:39AM 40.5106 -90.7986 54° Northeast 461 531 33,000  Level Chicago Center
07:41AM 40.5808 -90.6556 57° Northeast 466 536 33,000  Level Chicago Center
07:42AM 40.6503 -90.5128 57° Northeast 462 532 33,000  Level Chicago Center
07:43AM 40.7206 -90.3689 57° Northeast 464 534 33,000  Level Chicago Center
07:44AM 40.7950 -90.2225 56° Northeast 463 533 33,000 -540 Level Chicago Center
07:45AM 40.8633 -90.0781 58° Northeast 465 535 32,000 -1,560 Descending Chicago Center
07:46AM 40.9292 -89.9358 58° Northeast 459 528 29,900 -2,160 Descending Chicago Center
07:47AM 41.0031 -89.7889 56° Northeast 462 532 27,600 -2,340 Descending Chicago Center
07:48AM 41.0747 -89.6408 57° Northeast 470 541 25,200 -1,800 Descending Chicago Center
07:49AM 41.1439 -89.4939 58° Northeast 468 539 24,000 -1,860 Descending Chicago Center
07:50AM 41.2253 -89.3228 58° Northeast 457 526 21,400 -2,580 Descending Chicago Center
07:51AM 41.2894 -89.1881 58° Northeast 433 498 18,800 -2,400 Descending Chicago Center
07:52AM 41.3453 -89.0658 59° Northeast 418 481 16,500 -2,460 Descending Chicago Center
07:53AM 41.4053 -88.9383 58° Northeast 408 470 13,800 -2,400 Descending Chicago Center
07:54AM 41.4631 -88.8139 58° Northeast 395 455 11,600 -1,440 Descending Chicago Center
07:55AM 41.5269 -88.6697 59° Northeast 379 436 10,900 -300 Descending Chicago Center
07:56AM 41.5669 -88.5686 62° Northeast 307 353 11,000 -420 Climbing Chicago Center
07:57AM 41.6081 -88.4703 61° Northeast 304 350 10,100 -1,080 Descending Chicago Center
07:58AM 41.6583 -88.3839 52° Northeast 295 339 8,800 -1,320 Descending Chicago Center
07:59AM 41.7353 -88.3583 14° North 286 329 7,500 -1,080 Descending Chicago Center
08:00AM 41.8111 -88.3400 10° North 277 319 6,600 -1,320 Descending Chicago Center
08:01AM 41.8864 -88.3228 10° North 276 318 4,800 -1,320 Descending Chicago Center
08:02AM 41.9542 -88.2878 21° North 275 316 4,000 -420 Descending Chicago Center
08:03AM 41.9686 -88.1869 79° East 278 320 4,000 -420 Level Chicago Center
08:04AM 41.9667 -88.1167 92° East 271 312 3,400 -1,200 Descending Chicago TRACON
08:05AM 41.9667 -88.0333 90° East 217 250 2,300 -1,020 Descending Chicago TRACON
08:06AM 41.9667 -87.9667 90° East 141 162 1,400 -840 Descending Chicago TRACON